Aviation Digital Data Service (ADDS)

Output produced by METARs form (0059 UTC 22 September 2017)
found at http://www.aviationweather.gov/adds/metars/
 
TAF HBBA 212000Z 2200/2306 00000KT CAVOK 
     BECMG 2202/2204 36002KT 9999 FEW025 SCT100 
     BECMG 2207/2209 18010G20KT 9999 FEW030 BKN100 
     BECMG 2215/2217 00000KT CAVOK 
     BECMG 2302/2304 36002KT 9999 FEW025 SCT100